createdAt,value
2019-02-23T00:00:44.419Z,45.05
2019-02-23T00:03:14.787Z,48.80
2019-02-23T00:05:43.556Z,52.58
2019-02-23T00:08:12.136Z,43.10
2019-02-23T00:10:41.078Z,48.50
2019-02-23T00:13:09.927Z,50.65
2019-02-23T00:15:38.522Z,61.07
2019-02-23T00:18:07.224Z,118.73
2019-02-23T00:20:36.135Z,176.43
2019-02-23T00:23:04.913Z,129.57
2019-02-23T00:25:33.835Z,123.13
2019-02-23T00:28:02.456Z,93.10
2019-02-23T00:30:31.374Z,80.80
2019-02-23T00:33:00.044Z,113.28
2019-02-23T00:35:28.657Z,106.17
2019-02-23T00:37:57.645Z,81.20
2019-02-23T00:40:26.593Z,86.30
2019-02-23T00:42:55.537Z,63.50
2019-02-23T00:45:24.575Z,50.37
2019-02-23T00:47:53.416Z,47.60
2019-02-23T00:50:22.245Z,54.55
2019-02-23T00:52:50.960Z,48.25
2019-02-23T00:55:19.771Z,45.73
2019-02-23T00:57:48.653Z,49.25
2019-02-23T01:00:17.746Z,46.53
2019-02-23T01:02:46.647Z,40.80
2019-02-23T01:05:15.374Z,39.55
2019-02-23T01:07:44.048Z,40.08
2019-02-23T01:10:12.888Z,42.95
2019-02-23T01:12:41.784Z,35.95
2019-02-23T01:15:10.924Z,35.98
2019-02-23T01:17:39.690Z,36.95
2019-02-23T01:20:09.576Z,36.63
2019-02-23T01:22:38.397Z,37.35
2019-02-23T01:25:07.483Z,49.27
2019-02-23T01:27:36.412Z,36.53
2019-02-23T01:30:06.269Z,34.38
2019-02-23T01:32:34.949Z,32.90
2019-02-23T01:35:04.091Z,31.65
2019-02-23T01:37:32.759Z,39.83
2019-02-23T01:40:02.367Z,42.62
2019-02-23T01:42:31.308Z,42.00
2019-02-23T01:45:00.386Z,42.67
2019-02-23T01:47:29.028Z,46.58
2019-02-23T01:49:59.247Z,47.57
2019-02-23T01:52:29.275Z,46.90
2019-02-23T01:54:57.919Z,53.45
2019-02-23T01:57:26.827Z,48.15
2019-02-23T01:59:55.393Z,48.80
2019-02-23T02:02:24.034Z,45.70
2019-02-23T02:04:52.824Z,44.38
2019-02-23T02:07:21.599Z,49.58
2019-02-23T02:09:50.413Z,71.17
2019-02-23T02:12:19.726Z,46.70
2019-02-23T02:14:48.745Z,43.25
2019-02-23T02:17:17.923Z,43.90
2019-02-23T02:19:46.618Z,45.83
2019-02-23T02:22:15.250Z,48.75
2019-02-23T02:24:44.226Z,49.83
2019-02-23T02:27:13.006Z,46.53
2019-02-23T02:29:41.980Z,51.90
2019-02-23T02:32:10.886Z,44.67
2019-02-23T02:34:39.916Z,42.63
2019-02-23T02:37:08.908Z,40.25
2019-02-23T02:39:37.926Z,38.20
2019-02-23T02:42:07.119Z,31.93
2019-02-23T02:44:36.087Z,30.03
2019-02-23T02:47:04.908Z,30.93
2019-02-23T02:49:33.804Z,39.47
2019-02-23T02:52:02.777Z,38.13
2019-02-23T02:54:31.795Z,34.93
2019-02-23T02:57:00.897Z,45.00
2019-02-23T02:59:29.547Z,48.83
2019-02-23T03:01:59.006Z,42.93
2019-02-23T03:04:27.925Z,42.73
2019-02-23T03:06:56.883Z,36.97
2019-02-23T03:09:25.511Z,42.07
2019-02-23T03:11:54.227Z,40.73
2019-02-23T03:14:25.845Z,47.03
2019-02-23T03:16:54.767Z,44.75
2019-02-23T03:19:23.810Z,51.43
2019-02-23T03:21:52.558Z,53.27
2019-02-23T03:24:21.425Z,49.50
2019-02-23T03:26:49.997Z,48.67
2019-02-23T03:29:19.049Z,50.40
2019-02-23T03:31:47.901Z,46.70
2019-02-23T03:34:16.475Z,47.63
2019-02-23T03:36:45.332Z,49.87
2019-02-23T03:39:13.934Z,47.48
2019-02-23T03:41:43.861Z,41.40
2019-02-23T03:44:12.753Z,48.42
2019-02-23T03:46:41.293Z,49.63
2019-02-23T03:49:10.324Z,49.88
2019-02-23T03:51:38.995Z,42.58
2019-02-23T03:54:08.076Z,58.35
2019-02-23T03:56:37.238Z,61.92
2019-02-23T03:59:06.066Z,68.28
2019-02-23T04:01:34.991Z,56.53
2019-02-23T04:04:03.754Z,54.27
2019-02-23T04:06:32.500Z,54.27
2019-02-23T04:09:02.833Z,69.77
2019-02-23T04:14:01.395Z,56.13
2019-02-23T04:16:30.333Z,56.53
2019-02-23T04:18:58.936Z,57.50
2019-02-23T04:21:28.120Z,56.20
2019-02-23T04:23:57.143Z,58.17
2019-02-23T04:26:26.140Z,63.70
2019-02-23T04:28:54.951Z,65.70
2019-02-23T04:31:23.978Z,64.82
2019-02-23T04:33:53.148Z,58.63
2019-02-23T04:36:21.810Z,55.43
2019-02-23T04:38:50.635Z,56.30
2019-02-23T04:41:19.441Z,56.98
2019-02-23T04:43:48.236Z,55.35
2019-02-23T04:46:16.954Z,59.35
2019-02-23T04:48:45.985Z,65.42
2019-02-23T04:51:14.969Z,71.87
2019-02-23T04:53:43.855Z,65.17
2019-02-23T04:56:12.615Z,65.55
2019-02-23T04:58:41.226Z,62.13
2019-02-23T05:01:10.100Z,62.75
2019-02-23T05:03:38.834Z,65.15
2019-02-23T05:06:07.605Z,71.47
2019-02-23T05:08:37.197Z,60.63
2019-02-23T05:11:05.923Z,61.00
2019-02-23T05:13:34.936Z,67.08
2019-02-23T05:16:05.069Z,67.60
2019-02-23T05:18:33.697Z,63.87
2019-02-23T05:21:02.574Z,64.65
2019-02-23T05:23:32.497Z,62.23
2019-02-23T05:26:01.125Z,72.05
2019-02-23T05:28:30.037Z,59.77
2019-02-23T05:30:58.645Z,53.48
2019-02-23T05:33:27.608Z,60.12
2019-02-23T05:35:56.483Z,53.25
2019-02-23T05:38:25.123Z,55.45
2019-02-23T05:40:53.962Z,56.33
2019-02-23T05:43:23.560Z,60.83
2019-02-23T05:45:52.401Z,58.92
2019-02-23T05:48:21.366Z,53.05
2019-02-23T05:50:49.957Z,59.20
2019-02-23T05:53:18.645Z,59.85
2019-02-23T05:55:47.708Z,54.58
2019-02-23T05:58:16.781Z,53.85
2019-02-23T06:00:45.685Z,51.33
2019-02-23T06:03:14.619Z,65.62
2019-02-23T06:05:43.263Z,56.02
2019-02-23T06:08:12.407Z,60.90
2019-02-23T06:10:41.253Z,54.53
2019-02-23T06:13:10.226Z,56.15
2019-02-23T06:15:40.165Z,58.28
2019-02-23T06:18:08.833Z,57.73
2019-02-23T06:20:37.459Z,54.93
2019-02-23T06:23:06.175Z,59.20
2019-02-23T06:25:35.123Z,57.62
2019-02-23T06:28:03.885Z,64.80
2019-02-23T06:30:32.706Z,61.58
2019-02-23T06:33:01.781Z,62.98
2019-02-23T06:35:32.806Z,68.52
2019-02-23T06:38:01.906Z,71.42
2019-02-23T06:40:30.844Z,78.35
2019-02-23T06:42:59.471Z,77.60
2019-02-23T06:45:28.134Z,78.78
2019-02-23T06:47:56.927Z,78.62
2019-02-23T06:50:25.764Z,65.08
2019-02-23T06:52:55.665Z,63.98
2019-02-23T06:55:24.276Z,59.20
2019-02-23T06:57:52.988Z,54.73
2019-02-23T07:00:21.814Z,58.42
2019-02-23T07:02:50.538Z,61.90
2019-02-23T07:05:19.554Z,72.53
2019-02-23T07:07:48.542Z,65.72
2019-02-23T07:10:17.484Z,61.35
2019-02-23T07:12:46.079Z,66.17
2019-02-23T07:15:14.717Z,65.28
2019-02-23T07:17:43.366Z,77.53
2019-02-23T07:20:12.459Z,73.83
2019-02-23T07:22:41.068Z,79.45
2019-02-23T07:25:10.251Z,75.62
2019-02-23T07:27:39.041Z,82.02
2019-02-23T07:30:13.114Z,85.25
2019-02-23T07:32:41.885Z,81.67
2019-02-23T07:35:10.522Z,76.87
2019-02-23T07:37:39.384Z,88.40
2019-02-23T07:40:09.443Z,102.40
2019-02-23T07:42:38.200Z,86.20
2019-02-23T07:45:08.667Z,87.53
2019-02-23T07:47:37.389Z,78.45
2019-02-23T07:50:07.668Z,76.12
2019-02-23T07:52:36.387Z,75.28
2019-02-23T07:55:05.534Z,74.75
2019-02-23T07:57:34.138Z,74.30
2019-02-23T08:00:02.721Z,76.02
2019-02-23T08:02:32.792Z,73.25
2019-02-23T08:05:01.562Z,75.35
2019-02-23T08:07:31.578Z,75.42
2019-02-23T08:10:00.335Z,72.42
2019-02-23T08:12:29.114Z,76.30
2019-02-23T08:14:57.966Z,75.35
2019-02-23T08:17:26.565Z,63.63
2019-02-23T08:19:55.451Z,75.83
2019-02-23T08:22:24.453Z,59.65
2019-02-23T08:24:53.270Z,47.62
2019-02-23T08:27:22.445Z,52.40
2019-02-23T08:29:51.156Z,68.25
2019-02-23T08:32:19.915Z,37.38
2019-02-23T08:34:48.973Z,36.63
2019-02-23T08:37:18.098Z,36.90
2019-02-23T08:39:46.781Z,31.27
2019-02-23T08:42:15.414Z,28.67
2019-02-23T08:44:45.346Z,32.78
2019-02-23T08:47:14.110Z,25.72
2019-02-23T08:49:43.127Z,24.55
2019-02-23T08:52:12.496Z,25.75
2019-02-23T08:54:41.423Z,22.42
2019-02-23T08:57:11.377Z,22.62
2019-02-23T08:59:40.256Z,19.57
2019-02-23T09:02:08.980Z,24.18
2019-02-23T09:04:37.978Z,19.77
2019-02-23T09:07:06.870Z,22.37
2019-02-23T09:09:35.519Z,18.80
2019-02-23T09:12:04.126Z,20.75
2019-02-23T09:14:32.746Z,21.62
2019-02-23T09:17:01.492Z,19.80
2019-02-23T09:19:30.185Z,18.50
2019-02-23T09:21:58.795Z,18.95
2019-02-23T09:24:27.376Z,20.27
2019-02-23T09:26:56.247Z,17.10
2019-02-23T09:29:24.895Z,18.82
2019-02-23T09:31:53.505Z,15.65
2019-02-23T09:34:22.530Z,20.88
2019-02-23T09:36:51.328Z,20.70
2019-02-23T09:39:20.347Z,20.50
2019-02-23T09:41:49.316Z,16.07
2019-02-23T09:44:17.918Z,16.15
2019-02-23T09:46:46.765Z,15.85
2019-02-23T09:49:15.598Z,15.72
2019-02-23T09:51:44.317Z,13.15
2019-02-23T09:54:13.194Z,12.88
2019-02-23T09:56:42.088Z,14.95
2019-02-23T09:59:11.131Z,21.07
2019-02-23T10:01:39.884Z,13.50
2019-02-23T10:04:08.788Z,16.23
2019-02-23T10:06:37.497Z,18.50
2019-02-23T10:09:06.745Z,13.88
2019-02-23T10:11:35.837Z,16.85
2019-02-23T10:14:07.280Z,23.70
2019-02-23T10:16:35.126Z,14.55
2019-02-23T10:19:03.850Z,14.98
2019-02-23T10:21:33.558Z,19.48
2019-02-23T10:24:02.283Z,18.85
2019-02-23T10:26:32.181Z,13.65
2019-02-23T10:29:01.898Z,16.60
2019-02-23T10:31:30.666Z,15.40
2019-02-23T10:33:59.643Z,13.00
2019-02-23T10:36:28.196Z,14.05
2019-02-23T10:38:56.751Z,14.78
2019-02-23T10:41:25.425Z,16.40
2019-02-23T10:43:54.004Z,14.78
2019-02-23T10:46:22.622Z,17.30
2019-02-23T10:48:51.384Z,18.77
2019-02-23T10:51:20.014Z,18.75
2019-02-23T10:53:48.654Z,18.70
2019-02-23T10:56:17.309Z,16.00
2019-02-23T10:58:46.025Z,18.65
2019-02-23T11:01:14.746Z,15.25
2019-02-23T11:03:43.456Z,14.83
2019-02-23T11:06:18.869Z,21.07
2019-02-23T11:08:48.023Z,18.73
2019-02-23T11:11:16.769Z,18.55
2019-02-23T11:13:45.494Z,18.40
2019-02-23T11:16:14.386Z,18.48
2019-02-23T11:18:43.062Z,30.02
2019-02-23T11:21:12.151Z,23.15
2019-02-23T11:23:44.156Z,27.25
2019-02-23T11:26:11.287Z,20.97
2019-02-23T11:28:39.986Z,22.37
2019-02-23T11:31:08.785Z,25.40
2019-02-23T11:33:37.552Z,27.87
2019-02-23T11:36:06.290Z,20.48
2019-02-23T11:38:35.007Z,24.35
2019-02-23T11:41:03.677Z,20.97
2019-02-23T11:43:32.295Z,22.55
2019-02-23T11:46:01.044Z,20.05
2019-02-23T11:48:31.432Z,31.57
2019-02-23T11:51:01.119Z,25.92
2019-02-23T11:53:30.055Z,16.65
2019-02-23T11:55:58.778Z,16.48
2019-02-23T11:58:27.461Z,20.88
2019-02-23T12:00:56.127Z,15.88
2019-02-23T12:03:24.704Z,17.87
2019-02-23T12:05:53.662Z,16.48
2019-02-23T12:08:22.451Z,16.77
2019-02-23T12:10:50.982Z,16.80
2019-02-23T12:13:19.623Z,16.15
2019-02-23T12:15:48.286Z,20.43
2019-02-23T12:18:23.855Z,15.85
2019-02-23T12:20:55.847Z,19.60
2019-02-23T12:23:24.717Z,16.93
2019-02-23T12:25:53.493Z,19.45
2019-02-23T12:28:22.311Z,19.45
2019-02-23T12:30:51.113Z,17.20
2019-02-23T12:33:19.765Z,27.13
2019-02-23T12:35:48.484Z,21.00
2019-02-23T12:38:17.187Z,19.17
2019-02-23T12:40:46.501Z,22.17
2019-02-23T12:43:15.713Z,22.73
2019-02-23T12:45:44.689Z,15.65
2019-02-23T12:48:13.535Z,16.62
2019-02-23T12:50:42.416Z,16.82
2019-02-23T12:53:11.148Z,16.40
2019-02-23T12:55:39.919Z,16.12
2019-02-23T12:58:08.957Z,17.42
2019-02-23T13:00:37.547Z,15.93
2019-02-23T13:03:07.737Z,15.20
2019-02-23T13:08:57.140Z,16.77
2019-02-23T13:11:25.692Z,14.70
2019-02-23T13:13:55.817Z,21.27
2019-02-23T13:16:26.198Z,15.90
2019-02-23T13:19:05.248Z,16.30
2019-02-23T13:21:44.042Z,14.10
2019-02-23T13:24:29.207Z,13.80
2019-02-23T13:27:02.509Z,19.80
2019-02-23T13:29:35.427Z,18.10
2019-02-23T13:32:17.487Z,17.92
2019-02-23T13:34:51.041Z,19.02
2019-02-23T13:37:23.696Z,19.98
2019-02-23T13:39:56.426Z,21.27
2019-02-23T13:42:44.930Z,21.05
2019-02-23T13:45:21.287Z,21.95
2019-02-23T13:48:03.386Z,21.12
2019-02-23T13:50:33.518Z,22.82
2019-02-23T13:53:06.599Z,16.45
2019-02-23T13:55:36.788Z,18.02
2019-02-23T13:58:12.599Z,21.33
2019-02-23T14:00:59.090Z,26.65
2019-02-23T14:03:32.174Z,15.23
2019-02-23T14:06:14.360Z,16.07
2019-02-23T14:08:56.494Z,27.75
2019-02-23T14:11:44.766Z,19.37
2019-02-23T14:14:17.675Z,34.35
2019-02-23T14:17:02.795Z,15.72
2019-02-23T14:19:49.537Z,155.15
2019-02-23T14:22:27.583Z,112.28
2019-02-23T14:24:57.774Z,32.05
2019-02-23T14:27:28.063Z,22.70
2019-02-23T14:30:14.570Z,25.65
2019-02-23T14:32:46.993Z,12.80
2019-02-23T14:35:22.239Z,24.18
2019-02-23T14:38:10.978Z,19.57
2019-02-23T14:40:58.728Z,13.55
2019-02-23T14:43:36.333Z,15.95
2019-02-23T14:46:24.420Z,135.63
2019-02-23T14:48:54.517Z,17.07
2019-02-23T14:51:33.841Z,13.60
2019-02-23T14:54:20.379Z,32.00
2019-02-23T14:56:51.494Z,21.15
2019-02-23T14:59:39.859Z,20.85
2019-02-23T15:02:13.148Z,93.50
2019-02-23T15:04:43.173Z,25.95
2019-02-23T15:07:13.277Z,26.68
2019-02-23T15:09:58.708Z,24.18
2019-02-23T15:12:37.993Z,21.55
2019-02-23T15:15:08.098Z,46.92
2019-02-23T15:17:38.177Z,21.80
2019-02-23T15:20:11.331Z,28.02
2019-02-23T15:22:48.629Z,21.87
2019-02-23T15:25:24.924Z,18.27
2019-02-23T15:28:00.970Z,19.40
2019-02-23T15:30:31.173Z,29.35
2019-02-23T15:33:08.713Z,17.07
2019-02-23T15:36:16.765Z,20.43
2019-02-23T15:39:04.105Z,17.45
2019-02-23T15:41:35.908Z,28.42
2019-02-23T15:44:14.572Z,28.25
2019-02-23T15:46:48.849Z,29.92
2019-02-23T15:49:30.271Z,30.40
2019-02-23T15:51:59.835Z,32.03
2019-02-23T15:54:29.325Z,26.30
2019-02-23T15:56:58.179Z,26.23
2019-02-23T15:59:26.831Z,25.27
2019-02-23T16:01:55.470Z,31.12
2019-02-23T16:04:24.167Z,41.37
2019-02-23T16:06:53.162Z,44.25
2019-02-23T16:09:22.058Z,40.48
2019-02-23T16:11:50.734Z,34.35
2019-02-23T16:14:19.437Z,25.90
2019-02-23T16:16:48.015Z,31.17
2019-02-23T16:19:16.605Z,31.93
2019-02-23T16:21:45.253Z,28.32
2019-02-23T16:24:14.385Z,35.48
2019-02-23T16:26:43.832Z,27.67
2019-02-23T16:29:17.907Z,25.00
2019-02-23T16:31:46.826Z,23.18
2019-02-23T16:34:15.656Z,26.60
2019-02-23T16:36:44.819Z,28.95
2019-02-23T16:39:13.437Z,27.27
2019-02-23T16:41:42.201Z,21.17
2019-02-23T16:44:12.076Z,25.12
2019-02-23T16:46:40.693Z,22.60
2019-02-23T16:49:09.488Z,25.15
2019-02-23T16:51:38.239Z,23.75
2019-02-23T16:54:07.002Z,24.07
2019-02-23T16:56:35.705Z,25.90
2019-02-23T16:59:04.449Z,26.40
2019-02-23T17:01:33.335Z,26.62
2019-02-23T17:04:02.047Z,26.93
2019-02-23T17:06:32.879Z,22.73
2019-02-23T17:09:01.253Z,28.42
2019-02-23T17:11:32.248Z,31.80
2019-02-23T17:14:00.988Z,36.73
2019-02-23T17:16:29.592Z,41.33
2019-02-23T17:18:58.290Z,62.65
2019-02-23T17:21:26.905Z,68.90
2019-02-23T17:23:55.540Z,83.50
2019-02-23T17:26:25.221Z,56.35
2019-02-23T17:28:53.862Z,47.40
2019-02-23T17:31:22.473Z,42.53
2019-02-23T17:33:51.177Z,49.20
2019-02-23T17:36:19.853Z,34.78
2019-02-23T17:38:48.643Z,36.17
2019-02-23T17:41:17.257Z,39.23
2019-02-23T17:43:45.874Z,36.05
2019-02-23T17:46:14.482Z,34.70
2019-02-23T17:48:43.572Z,30.50
2019-02-23T17:51:12.368Z,34.67
2019-02-23T17:53:41.152Z,36.77
2019-02-23T17:56:12.340Z,37.53
2019-02-23T17:58:40.114Z,34.65
2019-02-23T18:01:08.766Z,40.45
2019-02-23T18:03:38.115Z,34.83
2019-02-23T18:06:06.844Z,29.18
2019-02-23T18:08:35.461Z,25.30
2019-02-23T18:11:04.066Z,31.27
2019-02-23T18:13:33.354Z,87.80
2019-02-23T18:16:01.994Z,114.42
2019-02-23T18:18:32.015Z,107.05
2019-02-23T18:21:00.615Z,45.75
2019-02-23T18:23:29.391Z,46.68
2019-02-23T18:25:59.725Z,41.88
2019-02-23T18:28:28.657Z,36.45
2019-02-23T18:30:57.495Z,36.28
2019-02-23T18:33:26.253Z,42.78
2019-02-23T18:35:55.268Z,43.35
2019-02-23T18:38:25.038Z,41.45
2019-02-23T18:40:54.206Z,51.63
2019-02-23T18:43:23.695Z,46.53
2019-02-23T18:45:53.865Z,48.20
2019-02-23T18:48:23.695Z,45.48
2019-02-23T18:50:53.488Z,52.58
2019-02-23T18:53:22.111Z,67.97
2019-02-23T18:55:50.787Z,45.70
2019-02-23T18:58:19.537Z,39.10
2019-02-23T19:00:48.516Z,43.58
2019-02-23T19:03:17.346Z,86.50
2019-02-23T19:05:49.974Z,60.78
2019-02-23T19:08:16.617Z,68.60
2019-02-23T19:10:45.372Z,55.70
2019-02-23T19:13:14.095Z,43.17
2019-02-23T19:15:42.656Z,51.25
2019-02-23T19:18:11.857Z,53.98
2019-02-23T19:20:40.705Z,101.92
2019-02-23T19:23:09.627Z,67.35
2019-02-23T19:25:38.348Z,64.03
2019-02-23T19:28:07.178Z,89.37
2019-02-23T19:30:36.342Z,207.50
2019-02-23T19:33:05.018Z,358.57
2019-02-23T19:35:33.761Z,162.25
2019-02-23T19:38:02.615Z,199.07
2019-02-23T19:40:31.316Z,79.05
2019-02-23T19:42:59.934Z,80.25
2019-02-23T19:45:28.564Z,59.48
2019-02-23T19:47:57.275Z,60.03
2019-02-23T19:50:27.739Z,65.30
2019-02-23T19:52:56.525Z,56.90
2019-02-23T19:55:25.192Z,68.55
2019-02-23T19:57:53.865Z,56.30
2019-02-23T20:00:22.426Z,55.95
2019-02-23T20:02:51.226Z,52.60
2019-02-23T20:05:20.021Z,63.08
2019-02-23T20:07:49.138Z,61.92
2019-02-23T20:10:17.739Z,53.92
2019-02-23T20:12:46.430Z,57.10
2019-02-23T20:15:15.178Z,78.47
2019-02-23T20:17:44.105Z,107.07
2019-02-23T20:20:12.709Z,121.92
2019-02-23T20:22:44.364Z,131.55
2019-02-23T20:25:13.072Z,85.32
2019-02-23T20:27:41.707Z,124.92
2019-02-23T20:30:11.310Z,123.15
2019-02-23T20:32:40.143Z,84.03
2019-02-23T20:35:09.010Z,80.72
2019-02-23T20:37:37.621Z,75.17
2019-02-23T20:40:07.685Z,87.60
2019-02-23T20:42:36.310Z,94.32
2019-02-23T20:45:06.225Z,79.45
2019-02-23T20:47:35.687Z,59.25
2019-02-23T20:50:08.652Z,54.88
2019-02-23T20:52:37.527Z,60.88
2019-02-23T20:55:07.784Z,52.25
2019-02-23T20:57:37.045Z,56.02
2019-02-23T21:00:08.196Z,82.55
2019-02-23T21:02:39.105Z,99.15
2019-02-23T21:05:09.397Z,82.78
2019-02-23T21:07:39.363Z,79.85
2019-02-23T21:10:09.115Z,93.92
2019-02-23T21:12:37.902Z,88.33
2019-02-23T21:15:07.919Z,86.40
2019-02-23T21:17:37.475Z,71.42
2019-02-23T21:20:07.596Z,87.75
2019-02-23T21:22:36.585Z,119.85
2019-02-23T21:25:06.505Z,140.07
2019-02-23T21:27:35.164Z,104.85
2019-02-23T21:30:04.229Z,76.77
2019-02-23T21:32:33.195Z,60.50
2019-02-23T21:35:02.918Z,68.20
2019-02-23T21:37:31.564Z,65.70
2019-02-23T21:40:00.292Z,68.60
2019-02-23T21:42:29.020Z,64.30
2019-02-23T21:44:58.023Z,71.62
2019-02-23T21:47:28.036Z,75.42
2019-02-23T21:49:56.732Z,66.53
2019-02-23T21:52:25.496Z,62.50
2019-02-23T21:54:55.544Z,64.35
2019-02-23T21:57:24.266Z,61.68
2019-02-23T21:59:53.244Z,78.97
2019-02-23T22:02:22.214Z,83.78
2019-02-23T22:04:51.098Z,107.85
2019-02-23T22:07:19.672Z,100.85
2019-02-23T22:09:48.400Z,97.70
2019-02-23T22:12:17.274Z,80.60
2019-02-23T22:14:45.899Z,90.10
2019-02-23T22:17:14.717Z,77.15
2019-02-23T22:19:43.685Z,74.50
2019-02-23T22:22:12.353Z,75.35
2019-02-23T22:24:40.982Z,78.83
2019-02-23T22:27:09.662Z,68.87
2019-02-23T22:29:38.289Z,63.40
2019-02-23T22:32:07.017Z,67.20
2019-02-23T22:34:35.541Z,64.85
2019-02-23T22:37:04.248Z,68.30
2019-02-23T22:39:32.953Z,57.17
2019-02-23T22:42:01.658Z,49.10
2019-02-23T22:44:30.483Z,58.28
2019-02-23T22:46:59.534Z,50.73
2019-02-23T22:49:28.287Z,61.83
2019-02-23T22:51:56.997Z,61.50
2019-02-23T22:54:25.871Z,54.60
2019-02-23T22:56:54.724Z,89.65
2019-02-23T22:59:23.545Z,64.82
2019-02-23T23:01:52.314Z,48.15
2019-02-23T23:04:21.361Z,52.67
2019-02-23T23:06:50.199Z,53.17
2019-02-23T23:09:20.199Z,62.58
2019-02-23T23:11:49.227Z,57.20
2019-02-23T23:14:17.787Z,45.43
2019-02-23T23:16:46.764Z,68.65
2019-02-23T23:19:15.444Z,60.12
2019-02-23T23:21:44.689Z,110.42
2019-02-23T23:24:13.556Z,69.35
2019-02-23T23:26:42.471Z,55.23
2019-02-23T23:29:11.479Z,47.00
2019-02-23T23:31:40.310Z,60.70
2019-02-23T23:34:08.873Z,93.95
2019-02-23T23:36:37.897Z,63.35
2019-02-23T23:39:06.528Z,41.58
2019-02-23T23:41:36.608Z,55.25
2019-02-23T23:44:05.331Z,50.50
2019-02-23T23:46:35.396Z,50.95
2019-02-23T23:49:04.348Z,50.63
2019-02-23T23:51:33.427Z,50.35
2019-02-23T23:54:02.028Z,52.45
2019-02-23T23:56:30.830Z,45.85
2019-02-23T23:58:59.596Z,44.05
